Time;durP1;ratioP1;P1;durP2;ratioP2;P2;SDS_P1;SDS_P2;PMS_P1;PMS_P2;Temp;Humidity;BMP_temperature;BMP_pressure;BME280_temperature;BME280_humidity;BME280_pressure;Samples;Min_cycle;Max_cycle;Signal;HPM_P1;HPM_P2
2023/06/15 00:00:17;;;;;;;4.68;2.13;;;24.40;58.80;;;;;;5033616;28;20069;-66
2023/06/15 00:02:43;;;;;;;6.05;2.25;;;24.40;58.80;;;;;;5033658;28;20028;-67
2023/06/15 00:05:09;;;;;;;2.88;2.20;;;24.40;59.00;;;;;;5033503;28;20104;-66
2023/06/15 00:07:34;;;;;;;5.82;2.10;;;24.40;59.10;;;;;;5033862;28;20047;-66
2023/06/15 00:10:00;;;;;;;2.47;1.85;;;24.40;59.20;;;;;;5033389;28;20037;-66
2023/06/15 00:12:25;;;;;;;3.40;1.98;;;24.40;59.40;;;;;;5033491;28;20033;-66
2023/06/15 00:14:51;;;;;;;4.22;2.08;;;24.30;59.40;;;;;;5033487;28;20075;-66
2023/06/15 00:17:17;;;;;;;5.00;1.80;;;24.30;59.50;;;;;;5033121;28;20036;-66
2023/06/15 00:19:44;;;;;;;4.53;1.80;;;24.30;59.60;;;;;;5033706;28;20025;-65
2023/06/15 00:22:14;;;;;;;4.63;2.10;;;24.20;59.70;;;;;;5033678;28;20028;-66
2023/06/15 00:24:41;;;;;;;4.07;1.73;;;24.20;59.70;;;;;;5033553;28;20021;-66
2023/06/15 00:27:08;;;;;;;3.83;2.47;;;24.20;59.80;;;;;;5033154;28;20072;-66
2023/06/15 00:29:33;;;;;;;4.22;2.10;;;24.20;59.90;;;;;;5033458;28;20105;-66
2023/06/15 00:31:59;;;;;;;4.32;2.15;;;24.10;60.00;;;;;;5033029;28;20101;-66
2023/06/15 00:34:25;;;;;;;5.15;2.30;;;24.10;60.80;;;;;;5033670;28;20112;-67
2023/06/15 00:36:51;;;;;;;3.63;2.10;;;24.10;60.20;;;;;;5033328;28;20021;-66
2023/06/15 00:39:16;;;;;;;3.53;2.00;;;24.10;60.30;;;;;;5033261;28;20026;-66
2023/06/15 00:41:43;;;;;;;4.60;2.03;;;24.10;60.40;;;;;;5033100;28;20045;-66
2023/06/15 00:44:09;;;;;;;3.72;2.00;;;24.10;60.40;;;;;;5033211;28;20056;-66
2023/06/15 00:46:35;;;;;;;4.38;1.90;;;24.10;60.60;;;;;;5032818;28;20030;-66
2023/06/15 00:49:02;;;;;;;3.15;2.10;;;24.00;60.60;;;;;;5033060;28;20072;-66
2023/06/15 00:51:28;;;;;;;2.65;2.10;;;24.00;60.80;;;;;;5033085;28;20013;-66
2023/06/15 00:53:53;;;;;;;3.95;2.20;;;24.00;60.80;;;;;;5033257;28;20021;-66
2023/06/15 00:56:19;;;;;;;4.75;2.40;;;23.90;60.90;;;;;;5033172;28;20124;-66
2023/06/15 00:58:45;;;;;;;4.63;2.10;;;23.90;61.00;;;;;;5033201;28;20036;-66
2023/06/15 01:01:11;;;;;;;4.20;1.77;;;23.90;61.10;;;;;;5032480;28;20038;-66
2023/06/15 01:03:40;;;;;;;3.80;2.00;;;23.90;61.10;;;;;;5033036;28;20024;-66
2023/06/15 01:06:13;;;;;;;6.55;2.30;;;23.80;61.20;;;;;;5032908;28;20109;-67
2023/06/15 01:08:40;;;;;;;5.35;2.13;;;23.80;61.20;;;;;;5032972;28;20045;-66
2023/06/15 01:11:06;;;;;;;6.78;2.20;;;23.80;61.30;;;;;;5032376;28;20067;-66
2023/06/15 01:13:34;;;;;;;2.72;2.05;;;23.80;61.40;;;;;;5032830;28;20064;-65
2023/06/15 01:16:02;;;;;;;6.43;3.03;;;23.80;61.30;;;;;;5032047;28;20026;-66
2023/06/15 01:18:31;;;;;;;3.85;1.83;;;23.70;61.30;;;;;;5033060;28;20018;-66
2023/06/15 01:21:01;;;;;;;5.18;2.20;;;23.70;61.60;;;;;;5032812;28;20044;-66
2023/06/15 01:23:41;;;;;;;4.55;2.38;;;23.70;61.60;;;;;;5032679;28;20021;-65
2023/06/15 01:26:11;;;;;;;5.53;2.13;;;23.70;61.60;;;;;;5032603;28;20018;-66
2023/06/15 01:28:45;;;;;;;5.55;2.28;;;23.60;61.60;;;;;;5032658;28;20040;-66
2023/06/15 01:31:11;;;;;;;5.18;2.53;;;23.60;61.80;;;;;;5032630;28;20013;-66
2023/06/15 01:33:47;;;;;;;8.20;2.63;;;23.60;61.80;;;;;;5032829;28;20026;-66
2023/06/15 01:36:13;;;;;;;6.63;2.50;;;23.60;61.90;;;;;;5032738;28;20040;-66
2023/06/15 01:38:40;;;;;;;2.92;2.30;;;23.60;61.90;;;;;;5032504;28;20021;-66
2023/06/15 01:41:07;;;;;;;9.25;2.80;;;23.50;61.90;;;;;;5032835;28;20068;-66
2023/06/15 01:43:35;;;;;;;4.90;2.22;;;23.50;62.00;;;;;;5032766;28;20382;-66
2023/06/15 01:46:03;;;;;;;3.58;2.15;;;23.50;62.10;;;;;;5032558;28;20025;-65
2023/06/15 01:48:29;;;;;;;4.88;2.53;;;23.50;62.20;;;;;;5032528;28;20022;-66
2023/06/15 01:50:55;;;;;;;5.65;2.45;;;23.40;62.20;;;;;;5032712;28;20049;-66
2023/06/15 01:53:22;;;;;;;7.85;2.70;;;23.40;62.30;;;;;;5032526;28;20076;-66
2023/06/15 01:55:48;;;;;;;6.53;2.03;;;23.40;62.40;;;;;;5032809;28;20064;-69
2023/06/15 01:58:17;;;;;;;5.35;2.42;;;23.40;62.40;;;;;;5033515;28;20041;-66
2023/06/15 02:00:43;;;;;;;3.67;2.63;;;23.40;62.50;;;;;;5036082;28;20505;-65
2023/06/15 02:03:10;;;;;;;4.07;2.50;;;23.30;62.60;;;;;;5035941;28;20493;-65
2023/06/15 02:05:39;;;;;;;4.03;2.50;;;23.30;62.60;;;;;;5036106;28;20068;-66
2023/06/15 02:08:09;;;;;;;3.13;2.13;;;23.30;62.80;;;;;;5035734;28;20025;-67
2023/06/15 02:10:34;;;;;;;3.88;2.40;;;23.30;62.80;;;;;;5036051;28;20029;-66
2023/06/15 02:13:00;;;;;;;4.93;2.80;;;23.20;62.80;;;;;;5035571;28;20486;-66
2023/06/15 02:15:26;;;;;;;5.43;2.72;;;23.20;62.90;;;;;;5035971;28;20056;-66
2023/06/15 02:18:00;;;;;;;9.98;2.53;;;23.20;63.00;;;;;;5035767;28;20021;-71
2023/06/15 02:20:29;;;;;;;7.40;2.55;;;23.20;63.20;;;;;;5035910;28;20463;-66
2023/06/15 02:22:57;;;;;;;3.80;2.63;;;23.20;63.20;;;;;;5035419;28;20103;-66
2023/06/15 02:25:24;;;;;;;6.10;2.72;;;23.20;63.30;;;;;;5034835;28;20025;-66
2023/06/15 02:27:49;;;;;;;6.70;2.53;;;23.10;63.30;;;;;;5034618;28;20057;-67
2023/06/15 02:30:15;;;;;;;5.00;2.80;;;23.10;63.60;;;;;;5035582;28;20056;-66
2023/06/15 02:32:42;;;;;;;5.07;2.50;;;23.10;63.60;;;;;;5035484;28;20021;-66
2023/06/15 02:35:11;;;;;;;8.13;2.83;;;23.10;63.70;;;;;;5017616;28;20452;-66
2023/06/15 02:37:41;;;;;;;8.07;2.90;;;23.10;63.80;;;;;;5035594;28;20021;-66
2023/06/15 02:40:08;;;;;;;3.33;2.35;;;23.10;63.80;;;;;;5035231;28;20033;-66
2023/06/15 02:42:35;;;;;;;4.80;2.58;;;23.00;63.90;;;;;;5035205;28;20033;-66
2023/06/15 02:45:02;;;;;;;3.90;2.60;;;23.00;63.90;;;;;;5035291;28;20028;-66
2023/06/15 02:47:28;;;;;;;3.97;2.40;;;23.00;64.00;;;;;;5035524;28;20032;-66
2023/06/15 02:49:54;;;;;;;8.10;2.97;;;23.00;64.00;;;;;;5035184;28;20026;-66
2023/06/15 02:52:20;;;;;;;8.13;2.50;;;23.00;64.10;;;;;;5035121;28;20075;-66
2023/06/15 02:54:46;;;;;;;8.75;2.78;;;23.00;64.20;;;;;;5035123;28;20104;-65
2023/06/15 02:57:11;;;;;;;6.90;2.70;;;22.90;64.30;;;;;;5034808;28;20026;-66
2023/06/15 02:59:37;;;;;;;5.20;2.83;;;22.90;64.40;;;;;;5034902;28;20034;-65
2023/06/15 03:02:06;;;;;;;8.93;2.83;;;22.80;64.40;;;;;;5035273;28;20112;-66
2023/06/15 03:04:32;;;;;;;5.38;2.78;;;22.90;64.60;;;;;;5035187;28;20033;-66
2023/06/15 03:06:59;;;;;;;7.63;3.28;;;22.80;64.60;;;;;;5035146;28;20022;-66
2023/06/15 03:09:25;;;;;;;3.03;2.42;;;22.80;64.60;;;;;;5033645;28;20033;-66
2023/06/15 03:11:53;;;;;;;5.68;2.95;;;22.80;64.60;;;;;;5034450;28;20022;-66
2023/06/15 03:14:19;;;;;;;4.13;2.60;;;22.80;64.70;;;;;;5034650;28;20474;-67
2023/06/15 03:16:48;;;;;;;6.72;2.50;;;22.70;64.70;;;;;;5034973;28;20024;-66
2023/06/15 03:19:16;;;;;;;4.60;2.88;;;22.80;64.90;;;;;;5034717;28;20025;-66
2023/06/15 03:21:43;;;;;;;8.15;3.17;;;22.70;64.90;;;;;;5034646;28;20041;-66
2023/06/15 03:24:09;;;;;;;6.00;2.70;;;22.70;65.00;;;;;;5034343;28;20014;-65
2023/06/15 03:26:38;;;;;;;6.45;2.60;;;22.70;65.00;;;;;;5034371;28;20025;-66
2023/06/15 03:29:04;;;;;;;4.20;2.70;;;22.60;65.10;;;;;;5034343;28;20018;-66
2023/06/15 03:31:33;;;;;;;7.07;2.72;;;22.60;65.20;;;;;;5034651;28;20060;-66
2023/06/15 03:34:01;;;;;;;7.15;3.05;;;22.60;65.40;;;;;;5034335;28;20041;-66
2023/06/15 03:36:31;;;;;;;8.63;3.53;;;22.60;65.50;;;;;;5034245;28;20032;-66
2023/06/15 03:38:57;;;;;;;7.68;3.08;;;22.50;65.50;;;;;;5034232;28;20029;-66
2023/06/15 03:41:23;;;;;;;8.50;2.95;;;22.50;65.60;;;;;;5033686;28;20075;-66
2023/06/15 03:43:49;;;;;;;6.07;2.80;;;22.50;65.90;;;;;;5034516;28;20051;-67
2023/06/15 03:46:15;;;;;;;12.18;3.15;;;22.50;65.90;;;;;;5034308;28;20029;-66
2023/06/15 03:48:41;;;;;;;4.10;3.35;;;22.50;66.00;;;;;;5034145;28;20384;-66
2023/06/15 03:51:06;;;;;;;4.82;3.17;;;22.50;66.20;;;;;;5034440;28;20017;-66
2023/06/15 03:53:32;;;;;;;6.97;3.35;;;22.40;66.10;;;;;;5034120;28;20078;-66
2023/06/15 03:55:57;;;;;;;5.07;3.15;;;22.40;66.40;;;;;;5033532;28;20025;-66
2023/06/15 03:58:24;;;;;;;7.05;3.17;;;22.40;66.30;;;;;;5033934;28;20022;-66
2023/06/15 04:00:51;;;;;;;5.20;2.95;;;22.40;66.40;;;;;;5033782;28;20033;-66
2023/06/15 04:03:16;;;;;;;5.72;3.35;;;22.40;66.50;;;;;;5033767;28;20056;-66
2023/06/15 04:05:42;;;;;;;5.72;3.30;;;22.40;66.50;;;;;;5033851;28;20061;-66
2023/06/15 04:08:08;;;;;;;7.43;3.30;;;22.40;66.50;;;;;;5033747;28;20052;-66
2023/06/15 04:10:34;;;;;;;6.35;3.70;;;22.40;66.70;;;;;;5033296;28;20033;-66
2023/06/15 04:13:00;;;;;;;5.03;3.53;;;22.30;66.70;;;;;;5033796;28;20030;-66
2023/06/15 04:15:26;;;;;;;9.23;4.20;;;22.30;66.70;;;;;;5033443;28;20393;-65
2023/06/15 04:17:51;;;;;;;5.85;3.38;;;22.30;66.70;;;;;;5033667;28;20028;-65
2023/06/15 04:20:17;;;;;;;10.07;3.70;;;22.30;66.90;;;;;;5033285;28;20029;-66
2023/06/15 04:22:43;;;;;;;5.30;2.97;;;22.30;67.00;;;;;;5033530;28;20478;-67
2023/06/15 04:25:08;;;;;;;4.63;2.88;;;22.30;67.00;;;;;;5033126;28;20030;-66
2023/06/15 04:27:35;;;;;;;8.70;3.50;;;22.20;67.20;;;;;;5033518;28;20022;-67
2023/06/15 04:30:02;;;;;;;4.07;3.17;;;22.30;67.50;;;;;;5033547;28;20491;-70
2023/06/15 04:32:30;;;;;;;5.10;3.22;;;22.20;67.60;;;;;;5033483;28;20027;-67
2023/06/15 04:34:56;;;;;;;8.65;3.55;;;22.20;67.70;;;;;;5033575;28;20075;-67
2023/06/15 04:37:23;;;;;;;8.55;3.10;;;22.20;67.80;;;;;;5033268;28;20473;-66
2023/06/15 04:39:49;;;;;;;7.65;3.67;;;22.20;68.30;;;;;;5033116;28;20033;-67
2023/06/15 04:42:18;;;;;;;8.02;3.83;;;22.20;68.20;;;;;;5033271;28;20034;-67
2023/06/15 04:44:44;;;;;;;6.63;3.47;;;22.20;68.10;;;;;;5033380;28;20379;-67
2023/06/15 04:47:10;;;;;;;7.60;4.25;;;22.20;68.50;;;;;;5033138;28;20536;-67
2023/06/15 04:49:35;;;;;;;7.20;4.03;;;22.20;68.50;;;;;;5033320;28;20024;-67
2023/06/15 04:52:01;;;;;;;6.00;3.90;;;22.20;68.60;;;;;;5033115;28;20032;-66
2023/06/15 04:54:27;;;;;;;9.73;3.90;;;22.20;68.70;;;;;;5032850;28;20021;-66
2023/06/15 04:56:52;;;;;;;8.10;3.88;;;22.10;68.60;;;;;;5033119;28;20029;-66
2023/06/15 04:59:18;;;;;;;10.48;5.00;;;22.10;68.60;;;;;;5033233;28;20024;-66
2023/06/15 05:01:43;;;;;;;6.43;4.10;;;22.10;68.60;;;;;;5032778;28;20478;-67
2023/06/15 05:04:09;;;;;;;5.20;3.75;;;22.10;68.60;;;;;;5032826;28;20414;-66
2023/06/15 05:06:35;;;;;;;7.95;4.20;;;22.10;68.60;;;;;;5031724;28;20029;-67
2023/06/15 05:09:01;;;;;;;6.43;4.40;;;22.10;68.60;;;;;;5032675;28;20037;-67
2023/06/15 05:11:26;;;;;;;11.10;4.20;;;22.10;68.60;;;;;;5032741;28;20425;-67
2023/06/15 05:13:52;;;;;;;12.23;4.50;;;22.10;68.70;;;;;;5032966;28;20506;-66
2023/06/15 05:16:17;;;;;;;6.82;4.28;;;22.10;68.80;;;;;;5033024;28;20106;-67
2023/06/15 05:18:45;;;;;;;9.00;4.90;;;22.10;68.80;;;;;;5031896;28;20492;-66
2023/06/15 05:21:12;;;;;;;6.47;4.50;;;22.10;69.00;;;;;;5031887;28;20025;-67
2023/06/15 05:23:37;;;;;;;8.55;4.70;;;22.10;69.10;;;;;;5032627;28;20030;-66
2023/06/15 05:26:03;;;;;;;8.85;4.82;;;22.00;68.90;;;;;;5032989;28;20083;-70
2023/06/15 05:28:29;;;;;;;10.73;4.47;;;22.00;68.90;;;;;;5032518;28;20030;-67
2023/06/15 05:30:55;;;;;;;5.20;4.55;;;22.10;69.10;;;;;;5031688;28;20026;-67
2023/06/15 05:33:20;;;;;;;7.10;4.88;;;22.10;69.00;;;;;;5031681;28;20032;-67
2023/06/15 05:35:46;;;;;;;9.88;4.70;;;22.00;69.20;;;;;;5034093;28;20064;-66
2023/06/15 05:38:11;;;;;;;8.35;4.80;;;22.10;69.50;;;;;;5033995;28;20508;-66
2023/06/15 05:40:37;;;;;;;7.15;4.20;;;22.10;69.70;;;;;;5035585;28;20087;-66
2023/06/15 05:43:03;;;;;;;8.38;3.95;;;22.10;70.00;;;;;;5034940;28;20033;-69
2023/06/15 05:45:30;;;;;;;8.48;4.85;;;22.10;70.10;;;;;;5036331;28;20052;-66
2023/06/15 05:47:55;;;;;;;6.53;3.72;;;22.10;70.30;;;;;;5035730;28;20021;-68
2023/06/15 05:50:21;;;;;;;9.60;4.35;;;22.20;70.30;;;;;;5029600;28;20048;-66
2023/06/15 05:52:46;;;;;;;6.75;4.20;;;22.30;70.20;;;;;;5030872;28;20026;-66
2023/06/15 05:55:12;;;;;;;14.07;4.03;;;22.40;69.50;;;;;;5033226;28;20500;-67
2023/06/15 05:57:38;;;;;;;7.28;4.50;;;22.40;69.50;;;;;;5032586;28;20028;-66
2023/06/15 06:00:04;;;;;;;7.32;4.13;;;22.50;69.40;;;;;;5034552;28;20021;-67
2023/06/15 06:02:30;;;;;;;10.70;4.32;;;22.60;69.50;;;;;;5032008;28;20389;-67
2023/06/15 06:04:56;;;;;;;9.60;4.90;;;22.70;69.40;;;;;;5034995;28;20030;-66
2023/06/15 06:07:23;;;;;;;9.88;4.13;;;22.70;69.00;;;;;;5034098;28;20029;-67
2023/06/15 06:09:48;;;;;;;6.95;3.80;;;22.80;69.50;;;;;;5035367;28;20026;-67
2023/06/15 06:12:14;;;;;;;4.18;3.75;;;22.90;69.00;;;;;;5034221;28;20050;-66
2023/06/15 06:14:39;;;;;;;6.15;3.95;;;23.00;68.70;;;;;;5032395;28;20022;-67
2023/06/15 06:17:05;;;;;;;10.65;4.05;;;23.00;67.80;;;;;;5033366;28;20095;-67
2023/06/15 06:19:31;;;;;;;5.85;4.00;;;23.10;67.90;;;;;;5034253;28;20031;-67
2023/06/15 06:21:56;;;;;;;6.35;3.33;;;23.20;67.60;;;;;;5031970;28;20029;-66
2023/06/15 06:24:22;;;;;;;8.02;3.88;;;23.30;67.60;;;;;;5033881;28;20025;-65
2023/06/15 06:26:47;;;;;;;5.40;4.07;;;23.30;67.30;;;;;;5033349;28;20033;-65
2023/06/15 06:29:13;;;;;;;7.35;3.33;;;23.40;66.90;;;;;;5033958;28;20513;-67
2023/06/15 06:31:39;;;;;;;7.28;3.33;;;23.50;67.30;;;;;;5034390;28;20458;-65
2023/06/15 06:34:05;;;;;;;3.65;3.10;;;23.70;67.30;;;;;;5034233;28;20363;-65
2023/06/15 06:36:31;;;;;;;6.07;3.28;;;23.70;66.70;;;;;;5034853;28;20022;-68
2023/06/15 06:38:57;;;;;;;5.55;3.50;;;23.80;66.80;;;;;;5016410;28;20030;-70
2023/06/15 06:41:22;;;;;;;7.78;3.83;;;23.90;67.00;;;;;;5033130;28;20077;-67
2023/06/15 06:43:48;;;;;;;5.47;3.03;;;23.90;66.80;;;;;;5034821;28;20075;-67
2023/06/15 06:46:14;;;;;;;5.97;3.00;;;24.00;66.30;;;;;;5035526;28;20200;-69
2023/06/15 06:48:40;;;;;;;5.65;2.85;;;24.10;66.50;;;;;;5034451;28;20014;-67
2023/06/15 06:51:05;;;;;;;8.57;3.05;;;24.10;66.40;;;;;;5034201;28;20491;-67
2023/06/15 06:53:31;;;;;;;4.15;2.42;;;24.20;65.90;;;;;;5030511;28;20033;-68
2023/06/15 06:55:56;;;;;;;7.30;2.65;;;24.30;68.40;;;;;;5032727;28;20032;-68
2023/06/15 06:58:22;;;;;;;6.00;2.67;;;24.30;67.20;;;;;;5032274;28;20029;-67
2023/06/15 07:00:48;;;;;;;5.20;2.58;;;24.40;66.50;;;;;;5032351;28;20116;-68
2023/06/15 07:03:13;;;;;;;3.83;2.45;;;24.50;66.20;;;;;;5034231;28;20033;-68
2023/06/15 07:05:39;;;;;;;8.07;2.25;;;24.50;66.10;;;;;;5031163;28;20053;-67
2023/06/15 07:08:04;;;;;;;4.68;2.53;;;24.50;66.20;;;;;;5033435;28;20437;-67
2023/06/15 07:10:30;;;;;;;5.30;2.15;;;24.60;65.00;;;;;;5028238;28;20485;-67
2023/06/15 07:12:56;;;;;;;2.72;2.17;;;24.70;65.40;;;;;;5034413;28;20394;-67
2023/06/15 07:15:27;;;;;;;4.85;2.35;;;24.90;63.40;;;;;;5034600;28;20450;-67
2023/06/15 07:17:53;;;;;;;3.17;2.17;;;25.00;63.90;;;;;;5034343;28;20421;-68
2023/06/15 07:20:19;;;;;;;3.28;2.38;;;25.10;63.80;;;;;;5032090;28;20094;-69
2023/06/15 07:22:44;;;;;;;5.15;2.20;;;25.10;63.50;;;;;;5032277;28;20026;-68
2023/06/15 07:25:10;;;;;;;3.83;2.33;;;25.20;64.70;;;;;;5030675;28;20021;-68
2023/06/15 07:27:35;;;;;;;3.17;2.20;;;25.20;65.60;;;;;;5030398;28;20025;-67
2023/06/15 07:30:01;;;;;;;76.63;12.38;;;25.20;64.80;;;;;;5033058;28;20057;-65
2023/06/15 07:32:27;;;;;;;30.45;5.57;;;25.30;64.70;;;;;;5034039;28;20064;-66
2023/06/15 07:34:52;;;;;;;13.00;2.58;;;25.30;66.30;;;;;;5030741;28;20505;-66
2023/06/15 07:37:18;;;;;;;3.72;2.03;;;25.30;65.50;;;;;;5031153;28;20548;-66
2023/06/15 07:39:43;;;;;;;3.67;2.00;;;25.50;63.40;;;;;;5033476;28;20528;-66
2023/06/15 07:42:09;;;;;;;8.70;1.85;;;25.60;62.80;;;;;;5033127;28;20091;-66
2023/06/15 07:44:35;;;;;;;4.30;1.75;;;25.60;64.30;;;;;;5033193;28;20516;-66
2023/06/15 07:47:01;;;;;;;4.53;1.90;;;25.60;64.40;;;;;;5032753;28;20080;-67
2023/06/15 07:49:26;;;;;;;2.42;1.90;;;25.60;64.20;;;;;;5031838;28;20029;-67
2023/06/15 07:51:52;;;;;;;2.45;2.20;;;25.70;63.40;;;;;;5031265;28;20028;-66
2023/06/15 07:54:17;;;;;;;3.17;1.42;;;25.80;62.60;;;;;;5032695;28;20485;-67
2023/06/15 07:56:45;;;;;;;4.63;1.90;;;26.00;61.70;;;;;;5031937;28;20033;-66
2023/06/15 07:59:11;;;;;;;3.40;1.80;;;26.00;63.50;;;;;;5030360;28;20022;-69
2023/06/15 08:01:36;;;;;;;5.22;1.95;;;26.00;62.50;;;;;;5021471;28;20034;-66
2023/06/15 08:04:03;;;;;;;3.55;1.70;;;26.10;62.50;;;;;;5027414;28;20026;-69
2023/06/15 08:06:28;;;;;;;2.10;1.77;;;26.20;62.40;;;;;;5030716;28;20160;-67
2023/06/15 08:08:54;;;;;;;5.70;1.50;;;26.30;62.80;;;;;;5028920;28;20469;-67
2023/06/15 08:11:20;;;;;;;3.72;1.70;;;26.30;63.20;;;;;;5030307;28;20498;-67
2023/06/15 08:13:45;;;;;;;3.58;1.55;;;26.30;62.30;;;;;;5028611;28;20044;-67
2023/06/15 08:16:11;;;;;;;3.58;1.90;;;26.40;62.10;;;;;;5031409;28;20476;-67
2023/06/15 08:18:37;;;;;;;2.70;1.58;;;26.40;61.90;;;;;;5030360;28;20061;-67
2023/06/15 08:21:02;;;;;;;4.88;1.60;;;26.60;59.90;;;;;;5023059;28;20038;-67
2023/06/15 08:23:28;;;;;;;4.70;1.65;;;26.70;60.00;;;;;;5028116;28;20055;-67
2023/06/15 08:25:54;;;;;;;5.53;1.90;;;26.70;59.90;;;;;;5025793;28;20285;-68
2023/06/15 08:28:20;;;;;;;6.97;1.90;;;26.80;61.20;;;;;;5027527;28;20104;-69
2023/06/15 08:30:46;;;;;;;4.50;1.83;;;26.90;59.50;;;;;;5028989;28;20490;-67
2023/06/15 08:33:12;;;;;;;4.72;1.67;;;27.00;59.00;;;;;;5021002;28;20045;-66
2023/06/15 08:35:37;;;;;;;6.03;1.50;;;27.10;58.80;;;;;;5024703;28;20033;-67
2023/06/15 08:38:03;;;;;;;5.07;1.55;;;27.10;58.80;;;;;;5028025;28;20174;-69
2023/06/15 08:40:28;;;;;;;4.82;2.50;;;27.20;58.50;;;;;;5026493;28;20040;-67
2023/06/15 08:42:56;;;;;;;3.97;1.90;;;27.20;59.40;;;;;;5030726;28;20099;-65
2023/06/15 08:45:26;;;;;;;2.67;1.80;;;27.30;59.20;;;;;;5024050;28;20355;-66
2023/06/15 08:47:55;;;;;;;6.80;1.92;;;27.30;58.90;;;;;;5030473;28;20029;-65
2023/06/15 08:50:20;;;;;;;4.40;1.63;;;27.40;58.30;;;;;;5021951;28;20025;-65
2023/06/15 08:52:49;;;;;;;6.38;2.20;;;27.40;58.00;;;;;;5022435;28;20025;-65
2023/06/15 08:55:17;;;;;;;3.42;1.77;;;27.50;58.20;;;;;;5020987;28;20080;-65
2023/06/15 08:57:43;;;;;;;6.25;2.20;;;27.60;58.10;;;;;;5026356;28;20441;-65
2023/06/15 09:00:10;;;;;;;7.57;1.90;;;27.60;58.60;;;;;;5023867;28;20482;-65
2023/06/15 09:02:42;;;;;;;7.72;2.08;;;27.60;57.70;;;;;;5023871;28;20057;-65
2023/06/15 09:05:08;;;;;;;7.15;2.17;;;27.60;57.20;;;;;;5018713;28;20049;-66
2023/06/15 09:07:35;;;;;;;5.85;1.70;;;27.60;59.30;;;;;;5028221;28;20041;-67
2023/06/15 09:10:17;;;;;;;3.97;1.88;;;27.60;58.00;;;;;;5024141;28;20360;-66
2023/06/15 09:13:00;;;;;;;3.30;1.63;;;27.60;57.70;;;;;;5026998;28;20505;-69
2023/06/15 09:15:29;;;;;;;7.05;2.00;;;27.70;58.90;;;;;;5024688;28;20057;-65
2023/06/15 09:18:02;;;;;;;4.75;1.77;;;27.70;57.60;;;;;;5022026;28;20427;-66
2023/06/15 09:20:31;;;;;;;3.05;1.70;;;27.80;56.80;;;;;;5022974;28;20022;-67
2023/06/15 09:23:01;;;;;;;11.40;3.25;;;27.80;57.50;;;;;;5003901;28;20034;-62
2023/06/15 09:25:28;;;;;;;12.70;2.28;;;27.70;60.30;;;;;;5028729;28;20076;-67
2023/06/15 09:27:56;;;;;;;3.95;2.05;;;27.70;60.00;;;;;;5028605;28;20033;-65
2023/06/15 09:30:29;;;;;;;6.05;1.88;;;27.70;56.30;;;;;;5034062;28;20024;-66
2023/06/15 09:32:55;;;;;;;6.70;1.83;;;27.80;56.80;;;;;;5024452;28;20116;-66
2023/06/15 09:35:21;;;;;;;9.82;2.95;;;27.70;56.10;;;;;;5032300;28;20109;-66
2023/06/15 09:37:55;;;;;;;11.10;2.97;;;27.70;60.50;;;;;;5027887;28;20485;-68
2023/06/15 09:40:25;;;;;;;6.22;2.47;;;27.70;57.50;;;;;;5028771;28;20552;-68
2023/06/15 09:42:52;;;;;;;4.72;2.10;;;27.70;58.50;;;;;;5025666;28;20034;-68
2023/06/15 09:45:18;;;;;;;6.60;2.35;;;27.70;56.40;;;;;;5015462;28;20080;-67
2023/06/15 09:47:44;;;;;;;5.53;1.98;;;27.70;57.10;;;;;;5034556;28;20080;-67
2023/06/15 09:50:10;;;;;;;5.75;2.33;;;27.70;56.90;;;;;;5034534;28;20463;-68
2023/06/15 09:52:41;;;;;;;7.90;2.17;;;27.70;56.30;;;;;;5026952;28;20018;-67
2023/06/15 09:55:08;;;;;;;7.10;2.45;;;27.70;60.60;;;;;;5034488;28;20029;-67
2023/06/15 09:57:35;;;;;;;6.82;2.50;;;27.80;60.00;;;;;;5029290;28;20483;-67
2023/06/15 10:00:02;;;;;;;3.13;2.20;;;27.80;57.20;;;;;;5034534;28;20029;-67
2023/06/15 10:02:29;;;;;;;7.30;2.13;;;27.70;56.80;;;;;;5033924;28;20398;-67
2023/06/15 10:04:56;;;;;;;5.57;2.30;;;27.70;57.90;;;;;;5033436;28;20025;-67
2023/06/15 10:07:21;;;;;;;7.45;2.60;;;27.80;57.10;;;;;;5033080;28;20021;-67
2023/06/15 10:09:49;;;;;;;8.82;3.03;;;27.70;58.40;;;;;;5031913;28;20586;-67
2023/06/15 10:12:22;;;;;;;4.95;2.20;;;27.80;60.70;;;;;;5025063;28;20033;-68
2023/06/15 10:15:01;;;;;;;3.72;2.33;;;27.70;56.30;;;;;;5033340;28;20029;-68
2023/06/15 10:17:37;;;;;;;3.80;2.30;;;27.70;56.30;;;;;;5029837;28;20040;-68
2023/06/15 10:20:16;;;;;;;4.63;1.98;;;27.70;56.90;;;;;;5034119;28;20022;-67
2023/06/15 10:22:59;;;;;;;5.18;2.47;;;27.80;57.40;;;;;;5027400;28;20087;-67
2023/06/15 10:25:27;;;;;;;5.03;2.70;;;27.80;60.30;;;;;;5029819;28;20472;-69
2023/06/15 10:27:53;;;;;;;6.05;2.72;;;27.80;60.90;;;;;;5031145;28;20088;-68
2023/06/15 10:30:30;;;;;;;6.60;2.30;;;27.80;61.00;;;;;;5015845;28;20490;-68
2023/06/15 10:33:31;;;;;;;6.00;2.20;;;27.80;60.10;;;;;;5032445;28;20018;-67
2023/06/15 10:36:03;;;;;;;4.45;2.20;;;27.80;56.50;;;;;;4990851;28;20042;-67
2023/06/15 10:38:51;;;;;;;4.90;2.40;;;27.80;60.80;;;;;;5034399;28;20502;-68
2023/06/15 10:41:17;;;;;;;5.40;2.40;;;27.80;57.70;;;;;;5033697;28;20042;-68
2023/06/15 10:43:59;;;;;;;8.55;2.90;;;27.80;57.80;;;;;;5027955;28;20030;-67
2023/06/15 10:46:29;;;;;;;6.20;2.83;;;27.80;61.40;;;;;;5025123;28;20045;-68
2023/06/15 10:49:05;;;;;;;5.95;2.47;;;27.80;61.50;;;;;;5021651;28;20033;-66
2023/06/15 10:51:33;;;;;;;11.63;2.80;;;27.70;61.10;;;;;;5029427;28;20053;-68
2023/06/15 10:54:02;;;;;;;6.05;2.65;;;27.70;60.30;;;;;;5030782;28;20033;-69
2023/06/15 10:56:28;;;;;;;4.70;2.42;;;27.80;57.90;;;;;;5031276;28;20036;-71
2023/06/15 10:59:07;;;;;;;5.90;2.60;;;27.70;56.60;;;;;;5014524;28;20030;-68
2023/06/15 11:01:33;;;;;;;3.15;2.10;;;27.70;55.50;;;;;;5018740;28;20033;-66
2023/06/15 11:04:28;;;;;;;6.57;2.40;;;27.80;57.60;;;;;;5031443;28;20435;-67
2023/06/15 11:07:01;;;;;;;9.88;2.42;;;27.80;58.10;;;;;;5019813;28;20061;-67
2023/06/15 11:09:34;;;;;;;13.07;3.05;;;27.80;60.30;;;;;;5024741;28;20026;-66
2023/06/15 11:12:00;;;;;;;6.28;2.47;;;27.70;56.40;;;;;;5028263;28;20025;-66
2023/06/15 11:14:26;;;;;;;4.40;2.40;;;27.60;56.60;;;;;;5032261;28;20548;-67
2023/06/15 11:17:02;;;;;;;7.00;2.10;;;27.60;54.60;;;;;;5032968;28;20382;-66
2023/06/15 11:19:28;;;;;;;3.75;2.40;;;27.60;53.90;;;;;;5033388;28;20733;-67
2023/06/15 11:21:59;;;;;;;8.30;2.55;;;27.60;54.40;;;;;;5032117;28;20037;-67
2023/06/15 11:24:33;;;;;;;10.38;2.75;;;27.60;55.00;;;;;;5030101;28;20092;-65
2023/06/15 11:27:02;;;;;;;8.55;2.75;;;27.60;57.70;;;;;;5030672;28;20064;-65
2023/06/15 11:29:33;;;;;;;2.53;2.08;;;27.60;57.90;;;;;;5029513;28;20374;-69
2023/06/15 11:32:03;;;;;;;4.00;2.25;;;27.60;57.10;;;;;;5030913;28;20064;-66
2023/06/15 11:34:30;;;;;;;5.22;2.28;;;27.60;55.90;;;;;;5029272;28;20026;-66
2023/06/15 11:36:59;;;;;;;4.80;2.20;;;27.70;55.00;;;;;;5015509;28;20025;-66
2023/06/15 11:39:28;;;;;;;4.35;2.40;;;27.70;55.20;;;;;;5029100;28;20105;-66
2023/06/15 11:41:56;;;;;;;6.18;2.42;;;27.70;55.10;;;;;;5025765;28;20049;-67
2023/06/15 11:44:23;;;;;;;3.65;2.15;;;27.70;55.40;;;;;;5026258;28;20426;-67
2023/06/15 11:47:00;;;;;;;4.18;2.47;;;27.60;54.10;;;;;;5023625;28;20157;-67
2023/06/15 11:49:32;;;;;;;5.00;1.88;;;27.70;54.20;;;;;;5031089;28;20033;-67
2023/06/15 11:51:58;;;;;;;5.82;2.45;;;27.70;53.80;;;;;;5019911;28;20513;-68
2023/06/15 11:54:28;;;;;;;2.08;1.88;;;27.70;53.50;;;;;;5028561;28;20029;-66
2023/06/15 11:56:57;;;;;;;3.95;2.22;;;27.70;53.80;;;;;;5028721;28;20026;-66
2023/06/15 11:59:24;;;;;;;7.03;2.25;;;27.80;58.30;;;;;;5021469;28;20490;-73
2023/06/15 12:01:50;;;;;;;5.65;2.38;;;27.70;54.60;;;;;;5014891;28;20084;-73
2023/06/15 12:04:16;;;;;;;4.47;2.47;;;27.70;54.40;;;;;;5013889;28;20036;-73
2023/06/15 12:06:43;;;;;;;7.15;2.55;;;27.70;54.20;;;;;;5028386;28;21630;-64
2023/06/15 12:09:09;;;;;;;5.53;3.15;;;27.60;54.00;;;;;;5028115;28;20025;-64
2023/06/15 12:11:36;;;;;;;5.68;2.53;;;27.60;53.80;;;;;;5030745;28;20030;-65
2023/06/15 12:14:09;;;;;;;3.05;2.00;;;27.70;53.70;;;;;;5032759;28;20030;-66
2023/06/15 12:16:36;;;;;;;3.13;2.40;;;27.70;53.50;;;;;;5026937;28;20096;-63
2023/06/15 12:19:03;;;;;;;6.93;2.15;;;27.70;53.60;;;;;;5031678;28;20033;-67
2023/06/15 12:21:35;;;;;;;7.13;2.53;;;27.70;56.10;;;;;;5022998;28;20029;-72
2023/06/15 12:24:01;;;;;;;10.32;3.08;;;27.70;57.10;;;;;;5031802;28;20028;-66
2023/06/15 12:26:33;;;;;;;5.78;2.85;;;27.70;59.10;;;;;;5031192;28;20508;-66
2023/06/15 12:29:01;;;;;;;4.05;2.75;;;27.70;56.30;;;;;;5028747;28;20037;-66
2023/06/15 12:31:34;;;;;;;3.90;2.03;;;27.70;56.40;;;;;;5016556;28;20195;-67
2023/06/15 12:34:08;;;;;;;6.90;2.58;;;27.70;56.00;;;;;;5013731;28;20021;-67
2023/06/15 12:36:34;;;;;;;3.20;2.17;;;27.70;54.80;;;;;;5030164;28;20593;-73
2023/06/15 12:39:05;;;;;;;4.78;2.40;;;27.70;54.00;;;;;;5026305;28;20045;-69
2023/06/15 12:41:30;;;;;;;5.50;2.60;;;27.70;53.80;;;;;;5024996;28;20104;-68
2023/06/15 12:43:56;;;;;;;8.07;2.58;;;27.70;53.80;;;;;;5028608;28;20421;-68
2023/06/15 12:46:22;;;;;;;5.50;2.42;;;27.80;54.30;;;;;;5019576;28;20037;-68